This is the latest recevied weather packets stored in our database for station/object N4CRH-13. If no packets are shown the sender has not sent any weather packets the latest 10 day(s).
| Time | Temp. | Humidity | Pressure | Rain* | Wind** | Luminosity | Snow |
|---|---|---|---|---|---|---|---|
| 1777443628 | 3.33° C | 78% | 1299.2 hPa | 0 mm | - | 0 W/m² | - |
| 1777443327 | 3.89° C | 78% | 1299.5 hPa | 0 mm | - | 0 W/m² | - |
| 1777443026 | 3.89° C | 78% | 1299.6 hPa | 0 mm | - | 0 W/m² | - |
| 1777442723 | 3.89° C | 77% | 1299.5 hPa | 0 mm | - | 0 W/m² | - |
| 1777442419 | 3.89° C | 78% | 1299.6 hPa | 0 mm | - | 0 W/m² | - |
| 1777442115 | 3.89° C | 78% | 1299.7 hPa | 0 mm | - | 0 W/m² | - |
| 1777441810 | 3.89° C | 78% | 1299.7 hPa | 0 mm | - | 0 W/m² | - |
| 1777441507 | 3.89° C | 78% | 1299.6 hPa | 0 mm | - | 0 W/m² | - |
| 1777441202 | 3.89° C | 78% | 1299.6 hPa | 0 mm | - | 0 W/m² | - |
| 1777440897 | 3.89° C | 79% | 1299.5 hPa | 0 mm | - | 0 W/m² | - |
| 1777440593 | 3.89° C | 78% | 1299.6 hPa | 0 mm | - | 0 W/m² | - |
| 1777440289 | 3.89° C | 77% | 1299.5 hPa | 0 mm | - | 0 W/m² | - |
| 1777439985 | 3.89° C | 76% | 1299.5 hPa | 0 mm | - | 0 W/m² | - |
| 1777439681 | 4.44° C | 76% | 1299.3 hPa | 0 mm | - | 0 W/m² | - |
| 1777439378 | 4.44° C | 74% | 1299.2 hPa | 0 mm | - | 0 W/m² | - |
| 1777439077 | 5° C | 70% | 1299.1 hPa | 0 mm | - | 0 W/m² | - |
| 1777438775 | 5.56° C | 68% | 1299 hPa | 0 mm | - | 0 W/m² | - |
| 1777438472 | 5.56° C | 67% | 1298.8 hPa | 0 mm | - | 0 W/m² | - |
| 1777438167 | 5.56° C | 66% | 1298.8 hPa | 0 mm | - | 0 W/m² | - |
| 1777437863 | 5.56° C | 66% | 1299.1 hPa | 0 mm | - | 0 W/m² | - |
| 1777437560 | 5° C | 68% | 1299 hPa | 0 mm | - | 0 W/m² | - |
| 1777437257 | 5° C | 69% | 1299 hPa | 0 mm | - | 0 W/m² | - |
| 1777436953 | 5° C | 71% | 1299.1 hPa | 0 mm | - | 0 W/m² | - |
| 1777436650 | 5.56° C | 67% | 1298.7 hPa | 0 mm | - | 0 W/m² | - |
| 1777436346 | 6.11° C | 64% | 1298.5 hPa | 0 mm | - | 0 W/m² | - |
* Rain latest hour (hover to see other rain measurements)
** Current wind speed in m/s (hover to see current wind gust speed)